EWG2WJ EGKK-EDDS
Flight info
| Callsign | EWG2WJ |
|---|---|
| Flight time | 1h 7m |
| Altitude | 37000 |
| Route | MIMFO Y312 DVR UL9 KONAN UL607 KOK DCT LNO DCT MATUG DCT EMGOD L607 UBIDU L984 RUDUS Z738 UBENO N850 KRH T128 BADSO BADSO2A |
| Aircraft | A320/M-SDE3FGHIRWY/LB1 |
Departure
| Time | 2026-04-14 15:42 |
|---|---|
| Airport | London Gatwick Airport (EGKK) |
Arrival
| Time | 2026-04-14 16:49 |
|---|---|
| Airport | Stuttgart Airport (EDDS) |
| Time | Latitude | Longitude | Altitude | Speed | Heading |
|---|---|---|---|---|---|
| 2026-04-14 14:54 | 51.15817 | -0.17952 | 205 ft | 0 kts | 78° |
| 2026-04-14 15:19 | 51.15814 | -0.17974 | 217 ft | 4 kts | 78° |
| 2026-04-14 15:20 | 51.15808 | -0.18016 | 215 ft | 4 kts | 78° |
| 2026-04-14 15:20 | 51.15807 | -0.18055 | 214 ft | 4 kts | 120° |
| 2026-04-14 15:20 | 51.15825 | -0.18078 | 212 ft | 3 kts | 167° |
| 2026-04-14 15:20 | 51.15846 | -0.18085 | 212 ft | 3 kts | 167° |
| 2026-04-14 15:21 | 51.15849 | -0.18086 | 212 ft | 0 kts | 167° |
| 2026-04-14 15:26 | 51.15808 | -0.18072 | 211 ft | 11 kts | 167° |
| 2026-04-14 15:26 | 51.15713 | -0.18038 | 211 ft | 11 kts | 163° |
| 2026-04-14 15:26 | 51.15704 | -0.17933 | 205 ft | 10 kts | 76° |
| 2026-04-14 15:26 | 51.15720 | -0.17831 | 205 ft | 9 kts | 77° |
| 2026-04-14 15:27 | 51.15732 | -0.17743 | 205 ft | 7 kts | 77° |
| 2026-04-14 15:27 | 51.15742 | -0.17668 | 208 ft | 6 kts | 78° |
| 2026-04-14 15:27 | 51.15750 | -0.17604 | 212 ft | 5 kts | 78° |
| 2026-04-14 15:27 | 51.15755 | -0.17529 | 205 ft | 8 kts | 103° |
| 2026-04-14 15:28 | 51.15689 | -0.17489 | 209 ft | 14 kts | 168° |
| 2026-04-14 15:28 | 51.15596 | -0.17457 | 209 ft | 12 kts | 168° |
| 2026-04-14 15:28 | 51.15511 | -0.17429 | 205 ft | 13 kts | 168° |
| 2026-04-14 15:28 | 51.15418 | -0.17397 | 208 ft | 14 kts | 168° |
| 2026-04-14 15:29 | 51.15326 | -0.17366 | 205 ft | 14 kts | 168° |
| 2026-04-14 15:29 | 51.15248 | -0.17317 | 209 ft | 13 kts | 133° |
| 2026-04-14 15:29 | 51.15249 | -0.17217 | 210 ft | 9 kts | 76° |
| 2026-04-14 15:29 | 51.15262 | -0.17126 | 216 ft | 8 kts | 78° |
| 2026-04-14 15:30 | 51.15273 | -0.17047 | 205 ft | 7 kts | 78° |
| 2026-04-14 15:30 | 51.15283 | -0.16975 | 205 ft | 8 kts | 78° |
| 2026-04-14 15:30 | 51.15294 | -0.16888 | 208 ft | 7 kts | 78° |
| 2026-04-14 15:30 | 51.15280 | -0.16833 | 207 ft | 0 kts | 149° |
| 2026-04-14 15:37 | 51.15269 | -0.16825 | 210 ft | 7 kts | 158° |
| 2026-04-14 15:37 | 51.15233 | -0.16813 | 213 ft | 0 kts | 167° |
| 2026-04-14 15:39 | 51.15216 | -0.16806 | 215 ft | 9 kts | 167° |
| 2026-04-14 15:39 | 51.15141 | -0.16799 | 209 ft | 12 kts | 204° |
| 2026-04-14 15:39 | 51.15113 | -0.16874 | 211 ft | 0 kts | 256° |
| 2026-04-14 15:41 | 51.15111 | -0.16880 | 214 ft | 4 kts | 256° |
| 2026-04-14 15:41 | 51.15056 | -0.17268 | 216 ft | 73 kts | 257° |
| 2026-04-14 15:41 | 51.14903 | -0.18394 | 209 ft | 133 kts | 257° |
| 2026-04-14 15:41 | 51.14682 | -0.20051 | 406 ft | 160 kts | 252° |
| 2026-04-14 15:42 | 51.14455 | -0.21751 | 1154 ft | 159 kts | 251° |
| 2026-04-14 15:42 | 51.14217 | -0.23506 | 1744 ft | 169 kts | 251° |
| 2026-04-14 15:42 | 51.13942 | -0.25461 | 2107 ft | 192 kts | 250° |
| 2026-04-14 15:42 | 51.13697 | -0.27685 | 2551 ft | 215 kts | 265° |
| 2026-04-14 15:43 | 51.14115 | -0.30037 | 3357 ft | 231 kts | 298° |
| 2026-04-14 15:43 | 51.15323 | -0.31817 | 3905 ft | 247 kts | 334° |
| 2026-04-14 15:43 | 51.17029 | -0.32154 | 4722 ft | 254 kts | 10° |
| 2026-04-14 15:43 | 51.18600 | -0.30893 | 5504 ft | 258 kts | 48° |
| 2026-04-14 15:44 | 51.19428 | -0.28455 | 6265 ft | 255 kts | 81° |
| 2026-04-14 15:44 | 51.19782 | -0.25676 | 7050 ft | 257 kts | 83° |
| 2026-04-14 15:44 | 51.20102 | -0.22847 | 7855 ft | 260 kts | 83° |
| 2026-04-14 15:44 | 51.20421 | -0.20000 | 8622 ft | 266 kts | 83° |
| 2026-04-14 15:45 | 51.20776 | -0.16972 | 8989 ft | 289 kts | 82° |
| 2026-04-14 15:45 | 51.21173 | -0.13771 | 9685 ft | 298 kts | 81° |
| 2026-04-14 15:45 | 51.21598 | -0.10507 | 10389 ft | 307 kts | 80° |
| 2026-04-14 15:45 | 51.22055 | -0.07049 | 10650 ft | 330 kts | 80° |
| 2026-04-14 15:46 | 51.22548 | -0.03330 | 10866 ft | 353 kts | 80° |
| 2026-04-14 15:46 | 51.23062 | 0.00582 | 11276 ft | 366 kts | 79° |
| 2026-04-14 15:46 | 51.23586 | 0.04590 | 11908 ft | 372 kts | 79° |
| 2026-04-14 15:46 | 51.24107 | 0.08607 | 12590 ft | 377 kts | 78° |
| 2026-04-14 15:47 | 51.24643 | 0.12734 | 13228 ft | 383 kts | 78° |
| 2026-04-14 15:47 | 51.25172 | 0.16932 | 13900 ft | 387 kts | 81° |
| 2026-04-14 15:47 | 51.25355 | 0.21215 | 14487 ft | 391 kts | 92° |
| 2026-04-14 15:47 | 51.25092 | 0.25591 | 15113 ft | 394 kts | 98° |
| 2026-04-14 15:48 | 51.24755 | 0.29941 | 15748 ft | 397 kts | 98° |
| 2026-04-14 15:48 | 51.24415 | 0.34336 | 16360 ft | 400 kts | 98° |
| 2026-04-14 15:48 | 51.24076 | 0.38761 | 16973 ft | 403 kts | 97° |
| 2026-04-14 15:48 | 51.23735 | 0.43232 | 17649 ft | 405 kts | 97° |
| 2026-04-14 15:49 | 51.23394 | 0.47722 | 18255 ft | 409 kts | 98° |
| 2026-04-14 15:49 | 51.23053 | 0.52195 | 18757 ft | 413 kts | 97° |
| 2026-04-14 15:49 | 51.22701 | 0.56766 | 19306 ft | 416 kts | 97° |
| 2026-04-14 15:49 | 51.22341 | 0.61380 | 19840 ft | 420 kts | 97° |
| 2026-04-14 15:50 | 51.21975 | 0.66024 | 20375 ft | 424 kts | 96° |
| 2026-04-14 15:50 | 51.21603 | 0.70715 | 20888 ft | 428 kts | 96° |
| 2026-04-14 15:50 | 51.21227 | 0.75445 | 21376 ft | 432 kts | 96° |
| 2026-04-14 15:50 | 51.20844 | 0.80236 | 21860 ft | 436 kts | 96° |
| 2026-04-14 15:51 | 51.20461 | 0.84996 | 22327 ft | 440 kts | 96° |
| 2026-04-14 15:51 | 51.20069 | 0.89865 | 22798 ft | 444 kts | 96° |
| 2026-04-14 15:51 | 51.19673 | 0.94776 | 23285 ft | 448 kts | 95° |
| 2026-04-14 15:51 | 51.19271 | 0.99726 | 23710 ft | 452 kts | 95° |
| 2026-04-14 15:52 | 51.18863 | 1.04716 | 24065 ft | 456 kts | 95° |
| 2026-04-14 15:52 | 51.18449 | 1.09740 | 24422 ft | 459 kts | 95° |
| 2026-04-14 15:52 | 51.18032 | 1.14797 | 24787 ft | 461 kts | 94° |
| 2026-04-14 15:52 | 51.17611 | 1.19883 | 25143 ft | 464 kts | 94° |
| 2026-04-14 15:53 | 51.17187 | 1.24992 | 25497 ft | 466 kts | 94° |
| 2026-04-14 15:53 | 51.16756 | 1.30140 | 25838 ft | 468 kts | 94° |
| 2026-04-14 15:53 | 51.16326 | 1.35226 | 26190 ft | 470 kts | 94° |
| 2026-04-14 15:53 | 51.15939 | 1.40471 | 26531 ft | 472 kts | 92° |
| 2026-04-14 15:54 | 51.15434 | 1.50847 | 27232 ft | 474 kts | 89° |
| 2026-04-14 15:54 | 51.15234 | 1.56116 | 27555 ft | 476 kts | 89° |
| 2026-04-14 15:54 | 51.15029 | 1.61394 | 27861 ft | 478 kts | 89° |
| 2026-04-14 15:55 | 51.14806 | 1.66631 | 28151 ft | 480 kts | 90° |
| 2026-04-14 15:55 | 51.14555 | 1.71957 | 28449 ft | 482 kts | 90° |
| 2026-04-14 15:55 | 51.14283 | 1.77289 | 28727 ft | 485 kts | 90° |
| 2026-04-14 15:55 | 51.13999 | 1.82641 | 28992 ft | 487 kts | 90° |
| 2026-04-14 15:56 | 51.13712 | 1.88019 | 29226 ft | 489 kts | 90° |
| 2026-04-14 15:56 | 51.13425 | 1.93423 | 29496 ft | 490 kts | 90° |
| 2026-04-14 15:56 | 51.13137 | 1.98855 | 29738 ft | 492 kts | 90° |
| 2026-04-14 15:56 | 51.12850 | 2.04284 | 30057 ft | 492 kts | 90° |
| 2026-04-14 15:57 | 51.12563 | 2.09707 | 30372 ft | 491 kts | 89° |
| 2026-04-14 15:57 | 51.12274 | 2.15117 | 30657 ft | 491 kts | 89° |
| 2026-04-14 15:57 | 51.11984 | 2.20527 | 30938 ft | 490 kts | 89° |
| 2026-04-14 15:57 | 51.11691 | 2.25937 | 31217 ft | 490 kts | 89° |
| 2026-04-14 15:58 | 51.11394 | 2.31351 | 31502 ft | 490 kts | 89° |
| 2026-04-14 15:58 | 51.11099 | 2.36688 | 31789 ft | 490 kts | 89° |
| 2026-04-14 15:58 | 51.10798 | 2.42079 | 32111 ft | 489 kts | 89° |
| 2026-04-14 15:58 | 51.10492 | 2.47454 | 32420 ft | 488 kts | 89° |
| 2026-04-14 15:59 | 51.10182 | 2.52837 | 32721 ft | 487 kts | 89° |
| 2026-04-14 15:59 | 51.09872 | 2.58206 | 33015 ft | 486 kts | 89° |
| 2026-04-14 15:59 | 51.09549 | 2.63555 | 33311 ft | 487 kts | 91° |
| 2026-04-14 15:59 | 51.08915 | 2.68882 | 33601 ft | 492 kts | 98° |
| 2026-04-14 16:00 | 51.08110 | 2.74174 | 33889 ft | 492 kts | 98° |
| 2026-04-14 16:00 | 51.07306 | 2.79448 | 34173 ft | 491 kts | 97° |
| 2026-04-14 16:00 | 51.06498 | 2.84723 | 34451 ft | 491 kts | 97° |
| 2026-04-14 16:00 | 51.05687 | 2.89987 | 34745 ft | 489 kts | 97° |
| 2026-04-14 16:01 | 51.04878 | 2.95225 | 35003 ft | 488 kts | 97° |
| 2026-04-14 16:01 | 51.04068 | 3.00461 | 35216 ft | 488 kts | 97° |
| 2026-04-14 16:01 | 51.03255 | 3.05696 | 35417 ft | 489 kts | 97° |
| 2026-04-14 16:01 | 51.02447 | 3.10875 | 35608 ft | 489 kts | 97° |
| 2026-04-14 16:02 | 51.01625 | 3.16119 | 35797 ft | 490 kts | 98° |
| 2026-04-14 16:02 | 51.00800 | 3.21365 | 35981 ft | 490 kts | 98° |
| 2026-04-14 16:02 | 50.99974 | 3.26622 | 36154 ft | 491 kts | 98° |
| 2026-04-14 16:02 | 50.99145 | 3.31880 | 36354 ft | 491 kts | 98° |
| 2026-04-14 16:03 | 50.98314 | 3.37135 | 36557 ft | 491 kts | 98° |
| 2026-04-14 16:03 | 50.97482 | 3.42386 | 36738 ft | 491 kts | 98° |
| 2026-04-14 16:03 | 50.96649 | 3.47636 | 36912 ft | 491 kts | 98° |
| 2026-04-14 16:03 | 50.95813 | 3.52885 | 37091 ft | 491 kts | 98° |
| 2026-04-14 16:04 | 50.94973 | 3.58140 | 37177 ft | 493 kts | 98° |
| 2026-04-14 16:04 | 50.93270 | 3.68679 | 37190 ft | 494 kts | 98° |
| 2026-04-14 16:05 | 50.91565 | 3.79218 | 37217 ft | 493 kts | 99° |
| 2026-04-14 16:05 | 50.89853 | 3.89729 | 37209 ft | 491 kts | 99° |
| 2026-04-14 16:06 | 50.88133 | 4.00202 | 37208 ft | 491 kts | 99° |
| 2026-04-14 16:06 | 50.86409 | 4.10615 | 37219 ft | 491 kts | 99° |
| 2026-04-14 16:07 | 50.84666 | 4.21078 | 37222 ft | 491 kts | 99° |
| 2026-04-14 16:07 | 50.82922 | 4.31534 | 37217 ft | 491 kts | 99° |
| 2026-04-14 16:08 | 50.81168 | 4.41988 | 37225 ft | 492 kts | 99° |
| 2026-04-14 16:08 | 50.79401 | 4.52444 | 37226 ft | 492 kts | 99° |
| 2026-04-14 16:09 | 50.77630 | 4.62882 | 37228 ft | 491 kts | 99° |
| 2026-04-14 16:09 | 50.75843 | 4.73284 | 37252 ft | 490 kts | 101° |
| 2026-04-14 16:10 | 50.74051 | 4.83651 | 37240 ft | 489 kts | 101° |
| 2026-04-14 16:10 | 50.72272 | 4.93920 | 37245 ft | 488 kts | 101° |
| 2026-04-14 16:11 | 50.70482 | 5.04232 | 37232 ft | 487 kts | 101° |
| 2026-04-14 16:11 | 50.68679 | 5.14539 | 37257 ft | 487 kts | 102° |
| 2026-04-14 16:12 | 50.66870 | 5.24802 | 37255 ft | 485 kts | 102° |
| 2026-04-14 16:12 | 50.65051 | 5.35034 | 37249 ft | 484 kts | 102° |
| 2026-04-14 16:13 | 50.63231 | 5.45235 | 37243 ft | 483 kts | 102° |
| 2026-04-14 16:13 | 50.61418 | 5.55349 | 37234 ft | 483 kts | 102° |
| 2026-04-14 16:14 | 50.59580 | 5.65512 | 37240 ft | 483 kts | 102° |
| 2026-04-14 16:14 | 50.57445 | 5.75536 | 37234 ft | 484 kts | 109° |
| 2026-04-14 16:15 | 50.54955 | 5.85360 | 37231 ft | 484 kts | 109° |
| 2026-04-14 16:15 | 50.52448 | 5.95180 | 37224 ft | 484 kts | 109° |
| 2026-04-14 16:16 | 50.49936 | 6.04982 | 37244 ft | 483 kts | 109° |
| 2026-04-14 16:16 | 50.47424 | 6.14752 | 37222 ft | 482 kts | 109° |
| 2026-04-14 16:17 | 50.44904 | 6.24491 | 37224 ft | 481 kts | 109° |
| 2026-04-14 16:17 | 50.42403 | 6.34125 | 37217 ft | 480 kts | 109° |
| 2026-04-14 16:18 | 50.39976 | 6.43868 | 37213 ft | 478 kts | 107° |
| 2026-04-14 16:18 | 50.37810 | 6.53715 | 37225 ft | 477 kts | 105° |
| 2026-04-14 16:19 | 50.35681 | 6.63549 | 37219 ft | 477 kts | 106° |
| 2026-04-14 16:19 | 50.33465 | 6.73350 | 37216 ft | 476 kts | 107° |
| 2026-04-14 16:20 | 50.31218 | 6.83030 | 37213 ft | 476 kts | 107° |
| 2026-04-14 16:20 | 50.28964 | 6.92761 | 37230 ft | 476 kts | 107° |
| 2026-04-14 16:21 | 50.26722 | 7.02495 | 37214 ft | 476 kts | 107° |
| 2026-04-14 16:21 | 50.24471 | 7.12225 | 37204 ft | 476 kts | 107° |
| 2026-04-14 16:22 | 50.22205 | 7.21951 | 37202 ft | 476 kts | 108° |
| 2026-04-14 16:22 | 50.19921 | 7.31681 | 37203 ft | 476 kts | 108° |
| 2026-04-14 16:23 | 50.17736 | 7.41442 | 37214 ft | 475 kts | 105° |
| 2026-04-14 16:23 | 50.15726 | 7.51204 | 37220 ft | 474 kts | 105° |
| 2026-04-14 16:24 | 50.13703 | 7.61003 | 37214 ft | 474 kts | 105° |
| 2026-04-14 16:24 | 50.11629 | 7.70766 | 37211 ft | 474 kts | 106° |
| 2026-04-14 16:25 | 50.09881 | 7.78863 | 37208 ft | 474 kts | 106° |
| 2026-04-14 16:25 | 50.07771 | 7.88605 | 37220 ft | 474 kts | 106° |
| 2026-04-14 16:26 | 50.06161 | 7.98508 | 37217 ft | 471 kts | 101° |
| 2026-04-14 16:26 | 50.04206 | 8.08236 | 37210 ft | 474 kts | 114° |
| 2026-04-14 16:27 | 50.00692 | 8.16858 | 37209 ft | 476 kts | 124° |
| 2026-04-14 16:27 | 49.96877 | 8.25299 | 37220 ft | 476 kts | 124° |
| 2026-04-14 16:28 | 49.93077 | 8.33727 | 37218 ft | 475 kts | 124° |
| 2026-04-14 16:28 | 49.89280 | 8.42117 | 37209 ft | 475 kts | 124° |
| 2026-04-14 16:29 | 49.85271 | 8.50171 | 37201 ft | 476 kts | 133° |
| 2026-04-14 16:29 | 49.80707 | 8.57606 | 37205 ft | 475 kts | 133° |
| 2026-04-14 16:30 | 49.75626 | 8.64116 | 37200 ft | 475 kts | 151° |
| 2026-04-14 16:30 | 49.72629 | 8.66293 | 37078 ft | 476 kts | 160° |
| 2026-04-14 16:30 | 49.69461 | 8.67736 | 36328 ft | 477 kts | 171° |
| 2026-04-14 16:30 | 49.66162 | 8.68089 | 35487 ft | 476 kts | 185° |
| 2026-04-14 16:31 | 49.62861 | 8.67637 | 34642 ft | 478 kts | 187° |
| 2026-04-14 16:31 | 49.59582 | 8.67140 | 33682 ft | 481 kts | 187° |
| 2026-04-14 16:31 | 49.56235 | 8.66645 | 32633 ft | 483 kts | 187° |
| 2026-04-14 16:31 | 49.52882 | 8.66171 | 31599 ft | 484 kts | 186° |
| 2026-04-14 16:32 | 49.49527 | 8.65715 | 30549 ft | 483 kts | 186° |
| 2026-04-14 16:32 | 49.46182 | 8.65279 | 29379 ft | 482 kts | 186° |
| 2026-04-14 16:32 | 49.42843 | 8.64853 | 28278 ft | 480 kts | 186° |
| 2026-04-14 16:32 | 49.39564 | 8.64433 | 27775 ft | 466 kts | 186° |
| 2026-04-14 16:33 | 49.36347 | 8.64015 | 27021 ft | 461 kts | 186° |
| 2026-04-14 16:33 | 49.33179 | 8.63598 | 26302 ft | 455 kts | 186° |
| 2026-04-14 16:33 | 49.30042 | 8.63160 | 25610 ft | 450 kts | 186° |
| 2026-04-14 16:33 | 49.26945 | 8.62685 | 24930 ft | 445 kts | 187° |
| 2026-04-14 16:34 | 49.23878 | 8.62190 | 24253 ft | 441 kts | 187° |
| 2026-04-14 16:34 | 49.20844 | 8.61698 | 23550 ft | 437 kts | 187° |
| 2026-04-14 16:34 | 49.17876 | 8.61221 | 22884 ft | 431 kts | 187° |
| 2026-04-14 16:34 | 49.14915 | 8.60752 | 22287 ft | 424 kts | 187° |
| 2026-04-14 16:35 | 49.11997 | 8.60302 | 21702 ft | 419 kts | 187° |
| 2026-04-14 16:35 | 49.09115 | 8.59869 | 21150 ft | 413 kts | 186° |
| 2026-04-14 16:35 | 49.06271 | 8.59445 | 20614 ft | 408 kts | 186° |
| 2026-04-14 16:35 | 49.03461 | 8.59029 | 20093 ft | 404 kts | 186° |
| 2026-04-14 16:36 | 49.00683 | 8.58622 | 19597 ft | 399 kts | 186° |
| 2026-04-14 16:36 | 48.97914 | 8.58577 | 19079 ft | 397 kts | 177° |
| 2026-04-14 16:36 | 48.95156 | 8.58914 | 18500 ft | 396 kts | 176° |
| 2026-04-14 16:36 | 48.92451 | 8.59240 | 17894 ft | 394 kts | 176° |
| 2026-04-14 16:37 | 48.89748 | 8.59821 | 17316 ft | 392 kts | 165° |
| 2026-04-14 16:37 | 48.87287 | 8.61546 | 16738 ft | 391 kts | 146° |
| 2026-04-14 16:37 | 48.85326 | 8.64391 | 16145 ft | 391 kts | 127° |
| 2026-04-14 16:37 | 48.84088 | 8.68043 | 15593 ft | 390 kts | 108° |
| 2026-04-14 16:38 | 48.83692 | 8.72108 | 15023 ft | 389 kts | 89° |
| 2026-04-14 16:38 | 48.84058 | 8.76158 | 14443 ft | 387 kts | 79° |
| 2026-04-14 16:38 | 48.84569 | 8.80172 | 13832 ft | 386 kts | 78° |
| 2026-04-14 16:38 | 48.85085 | 8.84163 | 13208 ft | 384 kts | 78° |
| 2026-04-14 16:39 | 48.85594 | 8.88123 | 12592 ft | 380 kts | 79° |
| 2026-04-14 16:39 | 48.86091 | 8.92049 | 11990 ft | 377 kts | 79° |
| 2026-04-14 16:39 | 48.86581 | 8.95938 | 11368 ft | 374 kts | 79° |
| 2026-04-14 16:39 | 48.87057 | 8.99746 | 10887 ft | 367 kts | 80° |
| 2026-04-14 16:40 | 48.87523 | 9.03469 | 10764 ft | 350 kts | 79° |
| 2026-04-14 16:40 | 48.87968 | 9.07020 | 10636 ft | 335 kts | 80° |
| 2026-04-14 16:40 | 48.88395 | 9.10428 | 10512 ft | 321 kts | 80° |
| 2026-04-14 16:40 | 48.88804 | 9.13695 | 10397 ft | 309 kts | 80° |
| 2026-04-14 16:41 | 48.89194 | 9.16843 | 10272 ft | 298 kts | 81° |
| 2026-04-14 16:41 | 48.89570 | 9.19900 | 10008 ft | 292 kts | 81° |
| 2026-04-14 16:41 | 48.89943 | 9.22947 | 9539 ft | 292 kts | 81° |
| 2026-04-14 16:41 | 48.90310 | 9.25955 | 9185 ft | 288 kts | 80° |
| 2026-04-14 16:42 | 48.90647 | 9.28942 | 8721 ft | 283 kts | 86° |
| 2026-04-14 16:42 | 48.90465 | 9.31876 | 8065 ft | 278 kts | 107° |
| 2026-04-14 16:42 | 48.89606 | 9.34471 | 7390 ft | 275 kts | 127° |
| 2026-04-14 16:42 | 48.88206 | 9.36416 | 6712 ft | 274 kts | 147° |
| 2026-04-14 16:43 | 48.86522 | 9.37772 | 5969 ft | 274 kts | 151° |
| 2026-04-14 16:43 | 48.84853 | 9.39077 | 5271 ft | 272 kts | 151° |
| 2026-04-14 16:43 | 48.83210 | 9.40360 | 4987 ft | 253 kts | 151° |
| 2026-04-14 16:43 | 48.81709 | 9.41527 | 4831 ft | 232 kts | 151° |
| 2026-04-14 16:44 | 48.80321 | 9.42608 | 4712 ft | 215 kts | 151° |
| 2026-04-14 16:44 | 48.79025 | 9.43624 | 4615 ft | 206 kts | 150° |
| 2026-04-14 16:44 | 48.77753 | 9.44623 | 4524 ft | 205 kts | 151° |
| 2026-04-14 16:45 | 48.75154 | 9.45815 | 4224 ft | 195 kts | 187° |
| 2026-04-14 16:45 | 48.73933 | 9.45093 | 4008 ft | 189 kts | 217° |
| 2026-04-14 16:45 | 48.73086 | 9.43644 | 3816 ft | 182 kts | 244° |
| 2026-04-14 16:45 | 48.72686 | 9.41869 | 3613 ft | 177 kts | 257° |
| 2026-04-14 16:46 | 48.72358 | 9.40107 | 3370 ft | 170 kts | 256° |
| 2026-04-14 16:46 | 48.72044 | 9.38431 | 3146 ft | 162 kts | 256° |
| 2026-04-14 16:46 | 48.71745 | 9.36833 | 2926 ft | 154 kts | 257° |
| 2026-04-14 16:46 | 48.71457 | 9.35299 | 2726 ft | 149 kts | 257° |
| 2026-04-14 16:47 | 48.71178 | 9.33814 | 2539 ft | 144 kts | 256° |
| 2026-04-14 16:47 | 48.70904 | 9.32360 | 2358 ft | 142 kts | 256° |
| 2026-04-14 16:47 | 48.70628 | 9.30914 | 2183 ft | 142 kts | 257° |
| 2026-04-14 16:47 | 48.70359 | 9.29478 | 2005 ft | 141 kts | 256° |
| 2026-04-14 16:48 | 48.70087 | 9.28054 | 1836 ft | 140 kts | 256° |
| 2026-04-14 16:48 | 48.69824 | 9.26657 | 1607 ft | 138 kts | 257° |
| 2026-04-14 16:48 | 48.69564 | 9.25265 | 1422 ft | 136 kts | 257° |
| 2026-04-14 16:48 | 48.69310 | 9.23890 | 1289 ft | 130 kts | 255° |
| 2026-04-14 16:49 | 48.69109 | 9.22818 | 1285 ft | 71 kts | 253° |
| 2026-04-14 16:49 | 48.69010 | 9.22299 | 1286 ft | 44 kts | 254° |
| 2026-04-14 16:49 | 48.68947 | 9.21961 | 1287 ft | 30 kts | 255° |
| 2026-04-14 16:49 | 48.68950 | 9.21711 | 1288 ft | 23 kts | 280° |
| 2026-04-14 16:50 | 48.68970 | 9.21580 | 1287 ft | 7 kts | 283° |
| 2026-04-14 16:50 | 48.68980 | 9.21520 | 1289 ft | 6 kts | 283° |
| 2026-04-14 16:50 | 48.68985 | 9.21487 | 1285 ft | 5 kts | 283° |
| 2026-04-14 16:50 | 48.68991 | 9.21446 | 1289 ft | 3 kts | 284° |
| 2026-04-14 16:51 | 48.68999 | 9.21400 | 1286 ft | 5 kts | 284° |
| 2026-04-14 16:51 | 48.69006 | 9.21357 | 1289 ft | 4 kts | 284° |
| 2026-04-14 16:51 | 48.69019 | 9.21282 | 1285 ft | 11 kts | 284° |
| 2026-04-14 16:51 | 48.69038 | 9.21163 | 1288 ft | 13 kts | 283° |
| 2026-04-14 16:52 | 48.69025 | 9.21024 | 1287 ft | 14 kts | 253° |
| 2026-04-14 16:52 | 48.68997 | 9.20877 | 1287 ft | 14 kts | 255° |
| 2026-04-14 16:52 | 48.68971 | 9.20735 | 1289 ft | 14 kts | 254° |
| 2026-04-14 16:52 | 48.68960 | 9.20616 | 1285 ft | 9 kts | 312° |
| 2026-04-14 16:53 | 48.69014 | 9.20547 | 1285 ft | 11 kts | 316° |
| 2026-04-14 16:53 | 48.69062 | 9.20446 | 1288 ft | 13 kts | 274° |
| 2026-04-14 16:53 | 48.69036 | 9.20313 | 1285 ft | 14 kts | 252° |
| 2026-04-14 16:53 | 48.69008 | 9.20162 | 1285 ft | 16 kts | 255° |
| 2026-04-14 16:54 | 48.68981 | 9.20027 | 1286 ft | 13 kts | 245° |
| 2026-04-14 16:54 | 48.68931 | 9.19916 | 1288 ft | 12 kts | 237° |
| 2026-04-14 16:54 | 48.68887 | 9.19812 | 1288 ft | 11 kts | 240° |
| 2026-04-14 16:54 | 48.68866 | 9.19713 | 1285 ft | 6 kts | 255° |
| 2026-04-14 16:55 | 48.68879 | 9.19673 | 1287 ft | 7 kts | 339° |
| 2026-04-14 16:55 | 48.68928 | 9.19652 | 1288 ft | 5 kts | 344° |
| 2026-04-14 16:55 | 48.68930 | 9.19652 | 1287 ft | 0 kts | 344° |